UAE798 OMDB-OBBI
Flight info
| Callsign | UAE798 |
|---|---|
| Flight time | 0h 54m |
| Altitude | 26000 |
| Route | NABIX3F NABIX P699 ORMID M556 ORDIG ORDIG1 |
| Aircraft | A20N/M-SDE2E3FGHIRWXY/LB1 |
Departure
| Time | 2026-04-24 19:12 |
|---|---|
| Airport | Dubai International Airport (OMDB) |
Arrival
| Time | 2026-04-24 20:06 |
|---|---|
| Airport | Bahrain International Airport (OBBI) |
| Time | Latitude | Longitude | Altitude | Speed | Heading |
|---|---|---|---|---|---|
| 2026-04-24 18:54 | 25.25694 | 55.37146 | 26 ft | 0 kts | 30° |
| 2026-04-24 18:56 | 25.25688 | 55.37142 | 31 ft | 1 kts | 30° |
| 2026-04-24 18:56 | 25.25682 | 55.37138 | 26 ft | 1 kts | 30° |
| 2026-04-24 18:56 | 25.25675 | 55.37133 | 26 ft | 1 kts | 30° |
| 2026-04-24 18:57 | 25.25668 | 55.37129 | 26 ft | 1 kts | 33° |
| 2026-04-24 18:57 | 25.25662 | 55.37124 | 26 ft | 1 kts | 40° |
| 2026-04-24 18:57 | 25.25656 | 55.37119 | 26 ft | 1 kts | 46° |
| 2026-04-24 18:57 | 25.25651 | 55.37113 | 26 ft | 1 kts | 51° |
| 2026-04-24 18:58 | 25.25646 | 55.37106 | 26 ft | 1 kts | 57° |
| 2026-04-24 18:58 | 25.25642 | 55.37099 | 26 ft | 1 kts | 66° |
| 2026-04-24 18:58 | 25.25639 | 55.37091 | 26 ft | 1 kts | 76° |
| 2026-04-24 18:58 | 25.25638 | 55.37083 | 27 ft | 1 kts | 90° |
| 2026-04-24 18:59 | 25.25638 | 55.37074 | 27 ft | 1 kts | 105° |
| 2026-04-24 18:59 | 25.25639 | 55.37071 | 27 ft | 0 kts | 112° |
| 2026-04-24 19:03 | 25.25628 | 55.37089 | 27 ft | 8 kts | 124° |
| 2026-04-24 19:04 | 25.25582 | 55.37168 | 28 ft | 16 kts | 121° |
| 2026-04-24 19:04 | 25.25562 | 55.37204 | 28 ft | 10 kts | 121° |
| 2026-04-24 19:04 | 25.25526 | 55.37269 | 28 ft | 0 kts | 122° |
| 2026-04-24 19:04 | 25.25520 | 55.37279 | 28 ft | 3 kts | 122° |
| 2026-04-24 19:05 | 25.25502 | 55.37311 | 29 ft | 7 kts | 122° |
| 2026-04-24 19:05 | 25.25497 | 55.37319 | 29 ft | 0 kts | 123° |
| 2026-04-24 19:06 | 25.25497 | 55.37320 | 29 ft | 2 kts | 122° |
| 2026-04-24 19:06 | 25.25464 | 55.37378 | 29 ft | 16 kts | 122° |
| 2026-04-24 19:06 | 25.25450 | 55.37402 | 29 ft | 0 kts | 123° |
| 2026-04-24 19:07 | 25.25448 | 55.37403 | 29 ft | 2 kts | 130° |
| 2026-04-24 19:07 | 25.25393 | 55.37385 | 34 ft | 16 kts | 199° |
| 2026-04-24 19:07 | 25.25352 | 55.37411 | 35 ft | 17 kts | 132° |
| 2026-04-24 19:07 | 25.25267 | 55.37564 | 37 ft | 29 kts | 122° |
| 2026-04-24 19:08 | 25.25146 | 55.37778 | 37 ft | 37 kts | 123° |
| 2026-04-24 19:08 | 25.25031 | 55.37988 | 37 ft | 14 kts | 123° |
| 2026-04-24 19:08 | 25.24966 | 55.38111 | 36 ft | 9 kts | 122° |
| 2026-04-24 19:08 | 25.24943 | 55.38135 | 36 ft | 9 kts | 152° |
| 2026-04-24 19:09 | 25.24907 | 55.38114 | 38 ft | 0 kts | 215° |
| 2026-04-24 19:10 | 25.24880 | 55.38095 | 39 ft | 11 kts | 213° |
| 2026-04-24 19:10 | 25.24848 | 55.38071 | 38 ft | 13 kts | 218° |
| 2026-04-24 19:10 | 25.24843 | 55.37959 | 39 ft | 7 kts | 303° |
| 2026-04-24 19:11 | 25.24929 | 55.37805 | 37 ft | 58 kts | 302° |
| 2026-04-24 19:11 | 25.25251 | 55.37222 | 38 ft | 118 kts | 301° |
| 2026-04-24 19:11 | 25.25775 | 55.36282 | 41 ft | 163 kts | 302° |
| 2026-04-24 19:11 | 25.26352 | 55.35206 | 521 ft | 167 kts | 301° |
| 2026-04-24 19:12 | 25.26955 | 55.34021 | 971 ft | 173 kts | 298° |
| 2026-04-24 19:12 | 25.27432 | 55.32908 | 1874 ft | 151 kts | 297° |
| 2026-04-24 19:12 | 25.27844 | 55.31891 | 2546 ft | 144 kts | 298° |
| 2026-04-24 19:12 | 25.28329 | 55.30909 | 2975 ft | 151 kts | 306° |
| 2026-04-24 19:13 | 25.28738 | 55.30234 | 3209 ft | 164 kts | 296° |
| 2026-04-24 19:13 | 25.28860 | 55.28446 | 3743 ft | 192 kts | 266° |
| 2026-04-24 19:13 | 25.28683 | 55.26892 | 4110 ft | 216 kts | 264° |
| 2026-04-24 19:13 | 25.28459 | 55.25157 | 4551 ft | 238 kts | 263° |
| 2026-04-24 19:14 | 25.28231 | 55.23250 | 5020 ft | 260 kts | 264° |
| 2026-04-24 19:14 | 25.28012 | 55.21220 | 5652 ft | 272 kts | 264° |
| 2026-04-24 19:14 | 25.27805 | 55.19168 | 6746 ft | 261 kts | 264° |
| 2026-04-24 19:14 | 25.27615 | 55.17236 | 8057 ft | 243 kts | 264° |
| 2026-04-24 19:15 | 25.27438 | 55.15430 | 9105 ft | 238 kts | 263° |
| 2026-04-24 19:15 | 25.27258 | 55.13587 | 9921 ft | 241 kts | 263° |
| 2026-04-24 19:15 | 25.27075 | 55.11738 | 10666 ft | 243 kts | 263° |
| 2026-04-24 19:15 | 25.26891 | 55.09877 | 11406 ft | 246 kts | 263° |
| 2026-04-24 19:16 | 25.26513 | 55.06072 | 12924 ft | 252 kts | 263° |
| 2026-04-24 19:16 | 25.26320 | 55.04126 | 13679 ft | 255 kts | 263° |
| 2026-04-24 19:16 | 25.26127 | 55.02187 | 14342 ft | 259 kts | 263° |
| 2026-04-24 19:17 | 25.25917 | 55.00082 | 14471 ft | 287 kts | 263° |
| 2026-04-24 19:17 | 25.25687 | 54.97779 | 14592 ft | 313 kts | 263° |
| 2026-04-24 19:17 | 25.25440 | 54.95304 | 14697 ft | 337 kts | 263° |
| 2026-04-24 19:17 | 25.25176 | 54.92662 | 14810 ft | 355 kts | 263° |
| 2026-04-24 19:18 | 25.24903 | 54.89939 | 14881 ft | 356 kts | 263° |
| 2026-04-24 19:18 | 25.24631 | 54.87230 | 14886 ft | 356 kts | 263° |
| 2026-04-24 19:18 | 25.24356 | 54.84486 | 14887 ft | 355 kts | 263° |
| 2026-04-24 19:18 | 25.24086 | 54.81799 | 14887 ft | 356 kts | 263° |
| 2026-04-24 19:19 | 25.23808 | 54.79064 | 14886 ft | 356 kts | 263° |
| 2026-04-24 19:19 | 25.23533 | 54.76364 | 14940 ft | 358 kts | 263° |
| 2026-04-24 19:19 | 25.23252 | 54.73602 | 15504 ft | 359 kts | 263° |
| 2026-04-24 19:19 | 25.22973 | 54.70862 | 16366 ft | 357 kts | 263° |
| 2026-04-24 19:20 | 25.22695 | 54.68134 | 17061 ft | 360 kts | 263° |
| 2026-04-24 19:20 | 25.22417 | 54.65408 | 17750 ft | 362 kts | 263° |
| 2026-04-24 19:20 | 25.22135 | 54.62638 | 18403 ft | 364 kts | 263° |
| 2026-04-24 19:20 | 25.21848 | 54.59834 | 18984 ft | 367 kts | 263° |
| 2026-04-24 19:21 | 25.21559 | 54.57010 | 19565 ft | 370 kts | 264° |
| 2026-04-24 19:21 | 25.21447 | 54.54175 | 20118 ft | 373 kts | 271° |
| 2026-04-24 19:21 | 25.21683 | 54.51312 | 20693 ft | 376 kts | 278° |
| 2026-04-24 19:21 | 25.22263 | 54.48485 | 21243 ft | 380 kts | 284° |
| 2026-04-24 19:22 | 25.22751 | 54.46598 | 21632 ft | 382 kts | 284° |
| 2026-04-24 19:22 | 25.23712 | 54.42814 | 22384 ft | 386 kts | 284° |
| 2026-04-24 19:22 | 25.24428 | 54.39966 | 22938 ft | 389 kts | 284° |
| 2026-04-24 19:22 | 25.25159 | 54.37055 | 23491 ft | 392 kts | 284° |
| 2026-04-24 19:23 | 25.25881 | 54.34174 | 23941 ft | 394 kts | 284° |
| 2026-04-24 19:23 | 25.26618 | 54.31236 | 24407 ft | 397 kts | 284° |
| 2026-04-24 19:23 | 25.27354 | 54.28287 | 24858 ft | 399 kts | 284° |
| 2026-04-24 19:23 | 25.28086 | 54.25334 | 25302 ft | 402 kts | 284° |
| 2026-04-24 19:24 | 25.28834 | 54.22309 | 25603 ft | 405 kts | 284° |
| 2026-04-24 19:24 | 25.29573 | 54.19320 | 25700 ft | 405 kts | 284° |
| 2026-04-24 19:24 | 25.30318 | 54.16304 | 25793 ft | 405 kts | 284° |
| 2026-04-24 19:24 | 25.31059 | 54.13306 | 25882 ft | 406 kts | 284° |
| 2026-04-24 19:25 | 25.31759 | 54.10280 | 25889 ft | 406 kts | 282° |
| 2026-04-24 19:25 | 25.32391 | 54.07261 | 25889 ft | 405 kts | 282° |
| 2026-04-24 19:25 | 25.33015 | 54.04210 | 25894 ft | 405 kts | 282° |
| 2026-04-24 19:25 | 25.33641 | 54.01168 | 25892 ft | 405 kts | 282° |
| 2026-04-24 19:26 | 25.34272 | 53.98139 | 25890 ft | 405 kts | 282° |
| 2026-04-24 19:26 | 25.34906 | 53.95118 | 25888 ft | 405 kts | 282° |
| 2026-04-24 19:26 | 25.35542 | 53.92102 | 25889 ft | 405 kts | 282° |
| 2026-04-24 19:26 | 25.36185 | 53.89049 | 25893 ft | 404 kts | 282° |
| 2026-04-24 19:27 | 25.36820 | 53.86035 | 25893 ft | 404 kts | 282° |
| 2026-04-24 19:27 | 25.37457 | 53.83005 | 25893 ft | 404 kts | 282° |
| 2026-04-24 19:27 | 25.38097 | 53.79965 | 25892 ft | 404 kts | 282° |
| 2026-04-24 19:27 | 25.38730 | 53.76954 | 25891 ft | 404 kts | 282° |
| 2026-04-24 19:28 | 25.39366 | 53.73927 | 25891 ft | 404 kts | 282° |
| 2026-04-24 19:28 | 25.40001 | 53.70904 | 25893 ft | 403 kts | 282° |
| 2026-04-24 19:28 | 25.40631 | 53.67897 | 25892 ft | 403 kts | 282° |
| 2026-04-24 19:28 | 25.41263 | 53.64875 | 25892 ft | 403 kts | 282° |
| 2026-04-24 19:29 | 25.42528 | 53.58823 | 25893 ft | 403 kts | 282° |
| 2026-04-24 19:29 | 25.43154 | 53.55824 | 25892 ft | 403 kts | 282° |
| 2026-04-24 19:29 | 25.43789 | 53.52774 | 25893 ft | 402 kts | 282° |
| 2026-04-24 19:30 | 25.44413 | 53.49774 | 25893 ft | 402 kts | 282° |
| 2026-04-24 19:30 | 25.45040 | 53.46759 | 25895 ft | 402 kts | 282° |
| 2026-04-24 19:30 | 25.45663 | 53.43760 | 25895 ft | 401 kts | 282° |
| 2026-04-24 19:30 | 25.46292 | 53.40729 | 25894 ft | 402 kts | 282° |
| 2026-04-24 19:31 | 25.46916 | 53.37712 | 25895 ft | 402 kts | 282° |
| 2026-04-24 19:31 | 25.47539 | 53.34702 | 25896 ft | 402 kts | 282° |
| 2026-04-24 19:31 | 25.48160 | 53.31698 | 25896 ft | 402 kts | 282° |
| 2026-04-24 19:31 | 25.48782 | 53.28687 | 25894 ft | 401 kts | 282° |
| 2026-04-24 19:32 | 25.49409 | 53.25648 | 25897 ft | 401 kts | 281° |
| 2026-04-24 19:32 | 25.50025 | 53.22657 | 25897 ft | 401 kts | 281° |
| 2026-04-24 19:32 | 25.50645 | 53.19639 | 25898 ft | 401 kts | 281° |
| 2026-04-24 19:32 | 25.51260 | 53.16638 | 25897 ft | 401 kts | 281° |
| 2026-04-24 19:33 | 25.51878 | 53.13621 | 25897 ft | 401 kts | 281° |
| 2026-04-24 19:33 | 25.52494 | 53.10612 | 25899 ft | 401 kts | 281° |
| 2026-04-24 19:33 | 25.53107 | 53.07612 | 25899 ft | 401 kts | 281° |
| 2026-04-24 19:33 | 25.53729 | 53.04569 | 25899 ft | 401 kts | 281° |
| 2026-04-24 19:34 | 25.54343 | 53.01556 | 25901 ft | 401 kts | 281° |
| 2026-04-24 19:34 | 25.54958 | 52.98540 | 25902 ft | 401 kts | 281° |
| 2026-04-24 19:34 | 25.55568 | 52.95546 | 25902 ft | 401 kts | 281° |
| 2026-04-24 19:34 | 25.56256 | 52.92539 | 25901 ft | 402 kts | 285° |
| 2026-04-24 19:35 | 25.57223 | 52.89660 | 25900 ft | 403 kts | 291° |
| 2026-04-24 19:35 | 25.58483 | 52.86876 | 25902 ft | 405 kts | 296° |
| 2026-04-24 19:35 | 25.59848 | 52.84110 | 25903 ft | 405 kts | 296° |
| 2026-04-24 19:35 | 25.61177 | 52.81391 | 25904 ft | 405 kts | 296° |
| 2026-04-24 19:36 | 25.62522 | 52.78629 | 25904 ft | 404 kts | 295° |
| 2026-04-24 19:36 | 25.63852 | 52.75897 | 25905 ft | 405 kts | 295° |
| 2026-04-24 19:36 | 25.65184 | 52.73159 | 25902 ft | 404 kts | 295° |
| 2026-04-24 19:36 | 25.66531 | 52.70391 | 25905 ft | 404 kts | 295° |
| 2026-04-24 19:37 | 25.67863 | 52.67653 | 25906 ft | 404 kts | 295° |
| 2026-04-24 19:37 | 25.69189 | 52.64926 | 25907 ft | 404 kts | 295° |
| 2026-04-24 19:37 | 25.70521 | 52.62184 | 25907 ft | 404 kts | 295° |
| 2026-04-24 19:37 | 25.71850 | 52.59447 | 25909 ft | 404 kts | 295° |
| 2026-04-24 19:38 | 25.73189 | 52.56689 | 25910 ft | 404 kts | 295° |
| 2026-04-24 19:38 | 25.74516 | 52.53954 | 25907 ft | 403 kts | 295° |
| 2026-04-24 19:38 | 25.75840 | 52.51222 | 25910 ft | 403 kts | 295° |
| 2026-04-24 19:38 | 25.76726 | 52.49383 | 25908 ft | 403 kts | 295° |
| 2026-04-24 19:39 | 25.78438 | 52.45716 | 25913 ft | 402 kts | 294° |
| 2026-04-24 19:39 | 25.79725 | 52.42927 | 25910 ft | 402 kts | 294° |
| 2026-04-24 19:39 | 25.80989 | 52.40189 | 25913 ft | 402 kts | 294° |
| 2026-04-24 19:39 | 25.81849 | 52.38329 | 25911 ft | 402 kts | 294° |
| 2026-04-24 19:40 | 25.83130 | 52.35564 | 25914 ft | 402 kts | 294° |
| 2026-04-24 19:40 | 25.84407 | 52.32811 | 25914 ft | 401 kts | 294° |
| 2026-04-24 19:40 | 25.85672 | 52.30087 | 25915 ft | 401 kts | 295° |
| 2026-04-24 19:40 | 25.87125 | 52.27418 | 25915 ft | 404 kts | 301° |
| 2026-04-24 19:41 | 25.88855 | 52.24928 | 25918 ft | 407 kts | 307° |
| 2026-04-24 19:41 | 25.90766 | 52.22622 | 25916 ft | 408 kts | 309° |
| 2026-04-24 19:41 | 25.92677 | 52.20326 | 25918 ft | 408 kts | 308° |
| 2026-04-24 19:41 | 25.94616 | 52.17983 | 25916 ft | 408 kts | 308° |
| 2026-04-24 19:42 | 25.96528 | 52.15668 | 25921 ft | 408 kts | 308° |
| 2026-04-24 19:42 | 25.98432 | 52.13363 | 25919 ft | 408 kts | 308° |
| 2026-04-24 19:42 | 26.00360 | 52.11031 | 25921 ft | 408 kts | 308° |
| 2026-04-24 19:42 | 26.02270 | 52.08719 | 25920 ft | 408 kts | 308° |
| 2026-04-24 19:43 | 26.04197 | 52.06384 | 25921 ft | 408 kts | 308° |
| 2026-04-24 19:43 | 26.06109 | 52.04069 | 25919 ft | 408 kts | 308° |
| 2026-04-24 19:43 | 26.08045 | 52.01725 | 25921 ft | 408 kts | 308° |
| 2026-04-24 19:43 | 26.09951 | 51.99417 | 25921 ft | 408 kts | 308° |
| 2026-04-24 19:44 | 26.11885 | 51.97074 | 25925 ft | 408 kts | 308° |
| 2026-04-24 19:44 | 26.13798 | 51.94753 | 25921 ft | 408 kts | 308° |
| 2026-04-24 19:44 | 26.15721 | 51.92420 | 25926 ft | 408 kts | 308° |
| 2026-04-24 19:44 | 26.17630 | 51.90102 | 25925 ft | 409 kts | 308° |
| 2026-04-24 19:45 | 26.19547 | 51.87773 | 25924 ft | 409 kts | 308° |
| 2026-04-24 19:45 | 26.21488 | 51.85415 | 25923 ft | 409 kts | 308° |
| 2026-04-24 19:45 | 26.23391 | 51.83074 | 25925 ft | 408 kts | 306° |
| 2026-04-24 19:45 | 26.25094 | 51.80570 | 25926 ft | 405 kts | 300° |
| 2026-04-24 19:46 | 26.26538 | 51.77868 | 25923 ft | 402 kts | 294° |
| 2026-04-24 19:46 | 26.27774 | 51.75078 | 25925 ft | 402 kts | 293° |
| 2026-04-24 19:46 | 26.29012 | 51.72290 | 25926 ft | 402 kts | 293° |
| 2026-04-24 19:46 | 26.30257 | 51.69503 | 25896 ft | 401 kts | 293° |
| 2026-04-24 19:47 | 26.31487 | 51.66748 | 25639 ft | 399 kts | 293° |
| 2026-04-24 19:47 | 26.32726 | 51.63972 | 25151 ft | 397 kts | 293° |
| 2026-04-24 19:47 | 26.33957 | 51.61213 | 24570 ft | 394 kts | 293° |
| 2026-04-24 19:47 | 26.35160 | 51.58518 | 23734 ft | 391 kts | 293° |
| 2026-04-24 19:48 | 26.36368 | 51.55804 | 22805 ft | 388 kts | 293° |
| 2026-04-24 19:48 | 26.37554 | 51.53116 | 21942 ft | 381 kts | 291° |
| 2026-04-24 19:48 | 26.39372 | 51.47682 | 20294 ft | 370 kts | 287° |
| 2026-04-24 19:49 | 26.41086 | 51.42311 | 19544 ft | 365 kts | 287° |
| 2026-04-24 19:49 | 26.42797 | 51.36950 | 18681 ft | 369 kts | 287° |
| 2026-04-24 19:50 | 26.45288 | 51.28977 | 16874 ft | 352 kts | 281° |
| 2026-04-24 19:50 | 26.45645 | 51.26313 | 15968 ft | 349 kts | 271° |
| 2026-04-24 19:51 | 26.45092 | 51.21008 | 14290 ft | 343 kts | 258° |
| 2026-04-24 19:51 | 26.44639 | 51.18372 | 13559 ft | 344 kts | 258° |
| 2026-04-24 19:52 | 26.43771 | 51.13218 | 12850 ft | 338 kts | 258° |
| 2026-04-24 19:52 | 26.43331 | 51.10614 | 12600 ft | 340 kts | 258° |
| 2026-04-24 19:52 | 26.42892 | 51.08012 | 12348 ft | 338 kts | 258° |
| 2026-04-24 19:52 | 26.42457 | 51.05451 | 12101 ft | 336 kts | 258° |
| 2026-04-24 19:53 | 26.42018 | 51.02877 | 11713 ft | 337 kts | 258° |
| 2026-04-24 19:53 | 26.41580 | 51.00312 | 11188 ft | 337 kts | 258° |
| 2026-04-24 19:53 | 26.40712 | 50.95229 | 10283 ft | 329 kts | 258° |
| 2026-04-24 19:54 | 26.40293 | 50.92769 | 10148 ft | 314 kts | 258° |
| 2026-04-24 19:54 | 26.39894 | 50.90427 | 10037 ft | 300 kts | 258° |
| 2026-04-24 19:54 | 26.39512 | 50.88191 | 9917 ft | 287 kts | 258° |
| 2026-04-24 19:54 | 26.39150 | 50.86073 | 9780 ft | 270 kts | 258° |
| 2026-04-24 19:55 | 26.38919 | 50.84725 | 9684 ft | 258 kts | 258° |
| 2026-04-24 19:55 | 26.38492 | 50.82228 | 9474 ft | 236 kts | 258° |
| 2026-04-24 19:55 | 26.38190 | 50.80468 | 9110 ft | 230 kts | 258° |
| 2026-04-24 19:55 | 26.37814 | 50.78789 | 8938 ft | 213 kts | 246° |
| 2026-04-24 19:56 | 26.37060 | 50.77432 | 8621 ft | 206 kts | 226° |
| 2026-04-24 19:56 | 26.35873 | 50.76572 | 8149 ft | 208 kts | 198° |
| 2026-04-24 19:56 | 26.34422 | 50.76492 | 7679 ft | 213 kts | 167° |
| 2026-04-24 19:56 | 26.33107 | 50.77280 | 7230 ft | 218 kts | 135° |
| 2026-04-24 19:57 | 26.32241 | 50.78642 | 6837 ft | 218 kts | 123° |
| 2026-04-24 19:57 | 26.31440 | 50.80071 | 6468 ft | 217 kts | 123° |
| 2026-04-24 19:57 | 26.30628 | 50.81496 | 6034 ft | 218 kts | 123° |
| 2026-04-24 19:57 | 26.29784 | 50.82959 | 5330 ft | 233 kts | 123° |
| 2026-04-24 19:58 | 26.28881 | 50.84513 | 4756 ft | 241 kts | 122° |
| 2026-04-24 19:58 | 26.27987 | 50.86052 | 4613 ft | 227 kts | 122° |
| 2026-04-24 19:58 | 26.27159 | 50.87482 | 4399 ft | 217 kts | 122° |
| 2026-04-24 19:58 | 26.26343 | 50.88890 | 4045 ft | 215 kts | 122° |
| 2026-04-24 19:59 | 26.25354 | 50.90139 | 3654 ft | 216 kts | 149° |
| 2026-04-24 19:59 | 26.23936 | 50.90600 | 3250 ft | 214 kts | 186° |
| 2026-04-24 19:59 | 26.22632 | 50.90070 | 3138 ft | 188 kts | 225° |
| 2026-04-24 19:59 | 26.21994 | 50.88946 | 2994 ft | 164 kts | 260° |
| 2026-04-24 20:00 | 26.21789 | 50.87737 | 2757 ft | 157 kts | 269° |
| 2026-04-24 20:00 | 26.21673 | 50.86537 | 2484 ft | 157 kts | 269° |
| 2026-04-24 20:00 | 26.21455 | 50.85327 | 2172 ft | 162 kts | 256° |
| 2026-04-24 20:00 | 26.20953 | 50.84203 | 1907 ft | 163 kts | 240° |
| 2026-04-24 20:01 | 26.20235 | 50.83222 | 1628 ft | 164 kts | 229° |
| 2026-04-24 20:01 | 26.19412 | 50.82357 | 1494 ft | 160 kts | 224° |
| 2026-04-24 20:01 | 26.18572 | 50.81515 | 1501 ft | 165 kts | 233° |
| 2026-04-24 20:01 | 26.18128 | 50.80413 | 1493 ft | 150 kts | 267° |
| 2026-04-24 20:02 | 26.18136 | 50.79660 | 1511 ft | 149 kts | 283° |
| 2026-04-24 20:02 | 26.18610 | 50.78216 | 1503 ft | 146 kts | 302° |
| 2026-04-24 20:02 | 26.19117 | 50.77253 | 1513 ft | 146 kts | 306° |
| 2026-04-24 20:02 | 26.19663 | 50.76292 | 1503 ft | 145 kts | 307° |
| 2026-04-24 20:03 | 26.20202 | 50.75356 | 1508 ft | 145 kts | 307° |
| 2026-04-24 20:03 | 26.20754 | 50.74397 | 1512 ft | 147 kts | 307° |
| 2026-04-24 20:03 | 26.21299 | 50.73449 | 1514 ft | 145 kts | 306° |
| 2026-04-24 20:03 | 26.21852 | 50.72490 | 1506 ft | 147 kts | 306° |
| 2026-04-24 20:04 | 26.22403 | 50.71527 | 1448 ft | 144 kts | 307° |
| 2026-04-24 20:04 | 26.22911 | 50.70641 | 1277 ft | 131 kts | 307° |
| 2026-04-24 20:04 | 26.23407 | 50.69783 | 1103 ft | 133 kts | 307° |
| 2026-04-24 20:04 | 26.23901 | 50.68922 | 929 ft | 132 kts | 308° |
| 2026-04-24 20:05 | 26.24395 | 50.68059 | 760 ft | 131 kts | 306° |
| 2026-04-24 20:05 | 26.24874 | 50.67202 | 566 ft | 132 kts | 305° |
| 2026-04-24 20:05 | 26.25363 | 50.66337 | 332 ft | 131 kts | 305° |
| 2026-04-24 20:05 | 26.25852 | 50.65481 | 182 ft | 130 kts | 306° |
| 2026-04-24 20:06 | 26.26342 | 50.64643 | 37 ft | 130 kts | 306° |
| 2026-04-24 20:06 | 26.26789 | 50.63880 | 18 ft | 86 kts | 302° |
| 2026-04-24 20:06 | 26.26975 | 50.63540 | 16 ft | 38 kts | 302° |
| 2026-04-24 20:06 | 26.27135 | 50.63274 | 14 ft | 42 kts | 301° |
| 2026-04-24 20:07 | 26.27233 | 50.63069 | 17 ft | 46 kts | 285° |
| 2026-04-24 20:07 | 26.27252 | 50.62858 | 17 ft | 0 kts | 264° |
| 2026-04-24 20:07 | 26.27251 | 50.62848 | 17 ft | 3 kts | 264° |
| 2026-04-24 20:08 | 26.27246 | 50.62810 | 17 ft | 7 kts | 251° |
| 2026-04-24 20:08 | 26.27199 | 50.62813 | 17 ft | 12 kts | 134° |
| 2026-04-24 20:08 | 26.27132 | 50.62905 | 18 ft | 13 kts | 156° |
| 2026-04-24 20:08 | 26.27081 | 50.62892 | 18 ft | 0 kts | 200° |
| 2026-04-24 20:09 | 26.27044 | 50.62869 | 18 ft | 8 kts | 223° |
| 2026-04-24 20:09 | 26.27024 | 50.62828 | 17 ft | 7 kts | 234° |
| 2026-04-24 20:09 | 26.26955 | 50.62776 | 17 ft | 11 kts | 215° |
| 2026-04-24 20:09 | 26.26950 | 50.62772 | 17 ft | 0 kts | 216° |